Time;durP1;ratioP1;P1;durP2;ratioP2;P2;SDS_P1;SDS_P2;PMS_P1;PMS_P2;Temp;Humidity;BMP_temperature;BMP_pressure;BME280_temperature;BME280_humidity;BME280_pressure;Samples;Min_cycle;Max_cycle;Signal;HPM_P1;HPM_P2
2023/05/15 00:02:19;;;;;;;11.52;7.40;;;;;;;12.40;67.28;100543.38;5082352;28;20131;-70
2023/05/15 00:04:46;;;;;;;15.07;7.05;;;;;;;12.35;67.22;100540.22;5079058;28;20052;-71
2023/05/15 00:07:14;;;;;;;14.55;8.05;;;;;;;12.32;67.38;100532.50;5084228;28;20059;-70
2023/05/15 00:09:41;;;;;;;13.48;7.63;;;;;;;12.29;67.95;100527.44;5085797;28;20473;-71
2023/05/15 00:12:08;;;;;;;9.05;7.28;;;;;;;12.28;67.35;100531.00;5080880;28;20052;-69
2023/05/15 00:14:36;;;;;;;10.07;7.07;;;;;;;12.26;67.07;100521.53;5082058;28;20058;-71
2023/05/15 00:17:03;;;;;;;11.77;7.15;;;;;;;12.25;67.05;100523.31;5086897;28;20044;-71
2023/05/15 00:19:30;;;;;;;8.80;7.20;;;;;;;12.22;67.61;100520.03;5089435;28;20591;-72
2023/05/15 00:21:57;;;;;;;14.43;7.93;;;;;;;12.17;66.86;100509.78;5086387;28;20048;-71
2023/05/15 00:24:24;;;;;;;12.70;7.18;;;;;;;12.17;66.72;100507.16;5080827;28;20530;-71
2023/05/15 00:26:52;;;;;;;15.77;8.70;;;;;;;12.17;66.28;100509.78;5082889;28;20141;-71
2023/05/15 00:29:19;;;;;;;14.15;7.07;;;;;;;12.17;66.63;100504.50;5078828;28;20056;-72
2023/05/15 00:31:46;;;;;;;10.75;7.13;;;;;;;12.15;67.15;100504.59;5079128;28;20071;-71
2023/05/15 00:34:13;;;;;;;11.80;6.78;;;;;;;12.14;67.38;100500.28;5078537;28;20143;-71
2023/05/15 00:36:41;;;;;;;10.10;7.22;;;;;;;12.11;67.45;100499.63;5078597;28;20135;-71
2023/05/15 00:39:08;;;;;;;9.57;7.35;;;;;;;12.10;68.17;100497.94;5084903;28;20174;-72
2023/05/15 00:41:36;;;;;;;12.82;6.75;;;;;;;12.06;68.89;100493.81;5081763;28;20101;-72
2023/05/15 00:44:04;;;;;;;15.88;7.95;;;;;;;12.01;69.09;100491.50;5079689;28;20071;-71
2023/05/15 00:46:31;;;;;;;13.82;8.05;;;;;;;11.99;69.00;100482.00;5081988;28;20074;-70
2023/05/15 00:48:59;;;;;;;12.95;8.02;;;;;;;11.96;68.79;100475.13;5087085;28;20043;-71
2023/05/15 00:51:26;;;;;;;10.48;8.15;;;;;;;11.95;69.02;100478.72;5082658;28;20052;-71
2023/05/15 00:53:55;;;;;;;11.48;8.30;;;;;;;11.91;69.22;100472.81;5084216;28;20131;-71
2023/05/15 00:56:23;;;;;;;12.23;7.65;;;;;;;11.90;69.08;100465.84;5085694;28;20059;-70
2023/05/15 00:58:51;;;;;;;11.35;7.78;;;;;;;11.88;68.79;100465.09;5082186;28;20055;-72
2023/05/15 01:01:18;;;;;;;9.02;7.35;;;;;;;11.88;68.82;100466.88;5064472;28;20698;-71
2023/05/15 01:03:45;;;;;;;10.13;7.35;;;;;;;11.87;68.56;100462.56;5080799;28;20044;-70
2023/05/15 01:06:13;;;;;;;11.25;8.00;;;;;;;11.84;68.92;100460.13;5064086;28;20504;-70
2023/05/15 01:08:45;;;;;;;11.82;7.75;;;;;;;11.82;69.44;100447.03;5083499;28;20575;-70
2023/05/15 01:11:14;;;;;;;11.45;8.38;;;;;;;11.80;69.85;100456.00;5085357;28;20380;-71
2023/05/15 01:13:42;;;;;;;12.85;7.65;;;;;;;11.77;69.59;100453.53;5084019;28;20040;-69
2023/05/15 01:16:09;;;;;;;10.70;7.30;;;;;;;11.75;69.95;100456.28;5085799;28;20152;-70
2023/05/15 01:18:37;;;;;;;9.10;6.47;;;;;;;11.72;70.34;100453.84;5084379;28;20155;-71
2023/05/15 01:21:26;;;;;;;11.90;7.65;;;;;;;11.70;70.53;100446.97;5084779;28;20111;-71
2023/05/15 01:23:56;;;;;;;9.25;6.80;;;;;;;11.64;70.58;100441.16;5099933;28;20451;-70
2023/05/15 01:26:45;;;;;;;12.40;6.72;;;;;;;11.61;70.88;100438.72;5086629;28;20047;-73
2023/05/15 01:29:20;;;;;;;10.10;6.97;;;;;;;11.59;71.10;100445.91;5084259;28;20049;-74
2023/05/15 01:31:57;;;;;;;13.02;7.72;;;;;;;11.57;71.16;100449.56;5054902;28;20556;-71
2023/05/15 01:34:31;;;;;;;10.77;7.68;;;;;;;11.53;70.85;100450.75;5084843;28;20139;-74
2023/05/15 01:37:02;;;;;;;11.52;7.50;;;;;;;11.49;71.15;100450.09;5087914;28;20155;-73
2023/05/15 01:39:32;;;;;;;10.63;7.10;;;;;;;11.44;71.78;100449.56;5067788;28;20044;-73
2023/05/15 01:42:08;;;;;;;13.20;8.15;;;;;;;11.41;71.70;100455.00;5079612;28;20146;-71
2023/05/15 01:44:38;;;;;;;11.55;8.32;;;;;;;11.40;71.27;100450.69;5085941;28;20062;-76
2023/05/15 01:47:12;;;;;;;15.20;8.18;;;;;;;11.40;71.17;100451.53;5082172;28;20049;-73
2023/05/15 01:49:42;;;;;;;12.55;8.10;;;;;;;11.38;70.89;100453.41;5076733;28;20144;-73
2023/05/15 01:52:32;;;;;;;10.75;8.07;;;;;;;11.34;71.73;100446.66;5084617;28;20658;-74
2023/05/15 01:55:03;;;;;;;10.98;7.95;;;;;;;11.32;71.08;100439.81;5090243;28;20101;-73
2023/05/15 01:57:31;;;;;;;9.82;7.88;;;;;;;11.34;71.43;100430.00;5091503;28;20062;-73
2023/05/15 01:59:59;;;;;;;12.38;7.35;;;;;;;11.33;71.59;100433.59;5085543;28;20464;-73
2023/05/15 02:02:27;;;;;;;11.07;7.47;;;;;;;11.33;71.61;100430.94;5089076;28;20146;-74
2023/05/15 02:04:55;;;;;;;7.93;7.05;;;;;;;11.33;71.84;100423.03;5067694;28;20148;-73
2023/05/15 02:07:24;;;;;;;11.82;7.28;;;;;;;11.33;71.77;100431.78;5087461;28;20106;-75
2023/05/15 02:09:51;;;;;;;10.90;7.78;;;;;;;11.29;72.15;100430.28;5087006;28;20156;-74
2023/05/15 02:12:20;;;;;;;10.88;8.30;;;;;;;11.30;72.00;100428.50;5084070;28;20677;-74
2023/05/15 02:14:48;;;;;;;11.30;7.82;;;;;;;11.29;72.14;100416.28;5088067;28;20144;-72
2023/05/15 02:17:15;;;;;;;10.63;8.23;;;;;;;11.27;72.59;100419.03;5070895;28;20134;-73
2023/05/15 02:19:43;;;;;;;10.05;8.88;;;;;;;11.25;72.50;100414.78;5088225;28;20075;-72
2023/05/15 02:22:10;;;;;;;13.10;7.75;;;;;;;11.23;72.19;100409.63;5087919;28;20063;-74
2023/05/15 02:24:38;;;;;;;11.88;8.30;;;;;;;11.24;72.74;100405.19;5072215;28;20595;-74
2023/05/15 02:27:16;;;;;;;16.10;8.70;;;;;;;11.24;72.52;100408.66;5086812;28;20101;-73
2023/05/15 02:30:05;;;;;;;13.68;8.95;;;;;;;11.26;72.83;100404.16;5084163;28;20116;-73
2023/05/15 02:32:46;;;;;;;11.25;7.85;;;;;;;11.25;72.81;100409.50;5088292;28;20059;-72
2023/05/15 02:35:19;;;;;;;16.48;9.32;;;;;;;11.22;73.17;100405.31;5101261;27;20167;-74
2023/05/15 02:37:49;;;;;;;13.48;8.95;;;;;;;11.23;73.23;100406.16;5091306;28;20059;-72
2023/05/15 02:40:18;;;;;;;12.38;8.40;;;;;;;11.24;73.39;100399.91;5086137;28;20072;-71
2023/05/15 02:42:46;;;;;;;14.45;8.63;;;;;;;11.24;73.45;100402.56;5069270;28;20069;-74
2023/05/15 02:45:13;;;;;;;13.23;8.57;;;;;;;11.25;73.43;100393.69;5080849;28;20135;-72
2023/05/15 02:47:41;;;;;;;11.57;9.73;;;;;;;11.24;73.67;100390.22;5089910;28;20124;-73
2023/05/15 02:50:09;;;;;;;10.45;8.70;;;;;;;11.25;73.87;100396.34;5085358;28;20067;-73
2023/05/15 02:52:36;;;;;;;13.43;8.90;;;;;;;11.24;74.12;100382.31;5071813;28;20408;-73
2023/05/15 02:55:05;;;;;;;13.02;8.15;;;;;;;11.24;74.53;100390.22;5082666;28;20142;-72
2023/05/15 02:57:32;;;;;;;12.55;8.90;;;;;;;11.23;74.56;100382.44;5087062;28;20048;-73
2023/05/15 03:00:00;;;;;;;19.08;9.32;;;;;;;11.24;74.35;100374.41;5067831;28;20139;-73
2023/05/15 03:02:27;;;;;;;12.05;9.38;;;;;;;11.27;74.34;100381.28;5081032;28;20052;-73
2023/05/15 03:04:54;;;;;;;13.13;8.88;;;;;;;11.28;74.59;100380.34;5086907;28;20054;-73
2023/05/15 03:07:22;;;;;;;11.38;9.52;;;;;;;11.28;74.81;100383.81;5086132;28;20034;-73
2023/05/15 03:09:49;;;;;;;11.32;8.52;;;;;;;11.28;74.93;100368.00;5083240;28;20048;-73
2023/05/15 03:12:16;;;;;;;15.02;9.38;;;;;;;11.27;74.95;100376.84;5085378;28;20075;-73
2023/05/15 03:14:43;;;;;;;11.73;8.93;;;;;;;11.25;75.02;100372.63;5083773;28;20079;-72
2023/05/15 03:17:11;;;;;;;10.38;7.93;;;;;;;11.24;75.19;100366.50;5085304;28;20546;-73
2023/05/15 03:19:38;;;;;;;14.55;10.52;;;;;;;11.22;75.45;100365.78;5084880;28;20143;-73
2023/05/15 03:22:06;;;;;;;13.30;9.50;;;;;;;11.20;75.45;100370.28;5067163;28;20549;-72
2023/05/15 03:24:33;;;;;;;16.23;8.77;;;;;;;11.18;75.50;100364.28;5083485;28;20498;-71
2023/05/15 03:27:00;;;;;;;13.23;9.43;;;;;;;11.16;75.77;100364.38;5087377;28;20090;-72
2023/05/15 03:29:28;;;;;;;15.23;9.65;;;;;;;11.15;76.11;100360.06;5084976;28;20147;-72
2023/05/15 03:31:55;;;;;;;12.57;9.13;;;;;;;11.13;76.11;100359.31;5077071;28;20106;-73
2023/05/15 03:34:23;;;;;;;18.67;10.23;;;;;;;11.14;76.12;100352.25;5081993;28;20068;-72
2023/05/15 03:36:50;;;;;;;14.80;9.65;;;;;;;11.12;76.00;100349.72;5084528;28;20134;-73
2023/05/15 03:39:17;;;;;;;18.50;10.02;;;;;;;11.13;75.70;100350.56;5084064;28;20053;-71
2023/05/15 03:41:44;;;;;;;17.85;9.90;;;;;;;11.15;75.35;100351.31;5085110;28;20048;-72
2023/05/15 03:44:12;;;;;;;13.73;9.18;;;;;;;11.14;75.32;100350.47;5084744;28;20113;-72
2023/05/15 03:46:39;;;;;;;15.90;10.10;;;;;;;11.14;75.78;100349.63;5089600;28;20052;-72
2023/05/15 03:49:06;;;;;;;13.40;10.25;;;;;;;11.13;75.90;100342.66;5085327;28;20143;-73
2023/05/15 03:51:34;;;;;;;13.80;9.45;;;;;;;11.14;75.95;100347.81;5088649;28;20065;-73
2023/05/15 03:54:04;;;;;;;14.60;9.00;;;;;;;11.16;76.08;100348.56;5085143;28;20167;-72
2023/05/15 03:56:31;;;;;;;14.68;8.98;;;;;;;11.18;76.41;100350.28;5079992;28;20063;-72
2023/05/15 03:58:59;;;;;;;12.77;9.27;;;;;;;11.20;75.99;100343.94;5083866;28;20215;-73
2023/05/15 04:01:26;;;;;;;15.65;10.68;;;;;;;11.21;75.72;100350.88;5086994;28;20293;-72
2023/05/15 04:03:53;;;;;;;15.40;9.85;;;;;;;11.22;75.67;100346.50;5085013;28;20619;-73
2023/05/15 04:06:21;;;;;;;14.63;9.55;;;;;;;11.23;75.31;100353.44;5085673;28;20080;-74
2023/05/15 04:08:49;;;;;;;18.05;10.45;;;;;;;11.24;75.20;100350.69;5089546;28;20693;-73
2023/05/15 04:11:16;;;;;;;20.73;10.60;;;;;;;11.23;75.82;100353.44;5085191;28;20063;-73
2023/05/15 04:13:43;;;;;;;18.42;10.60;;;;;;;11.24;75.25;100347.22;5082831;28;20076;-73
2023/05/15 04:16:11;;;;;;;17.25;11.70;;;;;;;11.26;75.16;100347.97;5086825;28;20231;-72
2023/05/15 04:18:38;;;;;;;22.80;14.57;;;;;;;11.24;75.18;100339.31;5089088;28;20144;-72
2023/05/15 04:21:08;;;;;;;24.58;14.88;;;;;;;11.22;75.50;100342.06;5086614;28;20485;-73
2023/05/15 04:23:35;;;;;;;24.10;13.57;;;;;;;11.22;75.28;100339.44;5073505;28;20071;-71
2023/05/15 04:26:02;;;;;;;21.63;13.25;;;;;;;11.22;75.16;100338.59;5087483;28;20052;-73
2023/05/15 04:28:31;;;;;;;19.30;13.23;;;;;;;11.23;75.35;100340.28;5083944;28;20129;-73
2023/05/15 04:30:58;;;;;;;24.98;14.57;;;;;;;11.25;75.53;100344.47;5081273;28;20060;-74
2023/05/15 04:33:26;;;;;;;20.65;13.07;;;;;;;11.26;75.80;100340.91;5082317;28;20056;-72
2023/05/15 04:35:53;;;;;;;24.10;14.30;;;;;;;11.26;75.31;100340.06;5083691;28;20716;-74
2023/05/15 04:38:20;;;;;;;14.77;12.48;;;;;;;11.29;75.36;100339.84;5087437;28;20048;-74
2023/05/15 04:40:48;;;;;;;15.32;12.48;;;;;;;11.33;75.22;100338.72;5085914;28;20044;-71
2023/05/15 04:43:15;;;;;;;23.30;13.23;;;;;;;11.38;74.89;100347.16;5082837;28;20072;-73
2023/05/15 04:45:42;;;;;;;18.05;11.55;;;;;;;11.43;74.65;100341.56;5083953;28;20079;-72
2023/05/15 04:48:10;;;;;;;21.65;13.05;;;;;;;11.47;74.26;100337.78;5082431;28;20048;-74
2023/05/15 04:50:37;;;;;;;16.98;12.15;;;;;;;11.50;74.18;100343.69;5086496;28;20131;-72
2023/05/15 04:53:13;;;;;;;20.90;13.25;;;;;;;11.52;73.74;100339.16;5083564;28;20059;-74
2023/05/15 04:55:41;;;;;;;15.90;11.52;;;;;;;11.54;73.68;100339.91;5086917;28;20048;-74
2023/05/15 04:58:08;;;;;;;17.60;12.50;;;;;;;11.59;73.72;100331.69;5084186;28;20141;-73
2023/05/15 05:00:36;;;;;;;17.23;12.05;;;;;;;11.67;74.07;100332.03;5078893;28;20060;-74
2023/05/15 05:03:03;;;;;;;14.77;11.70;;;;;;;11.76;74.14;100328.75;5085711;28;20507;-72
2023/05/15 05:05:31;;;;;;;21.88;12.40;;;;;;;11.85;73.81;100328.16;5087710;28;20601;-72
2023/05/15 05:07:58;;;;;;;15.02;11.20;;;;;;;11.96;72.91;100330.03;5087801;28;20054;-72
2023/05/15 05:10:26;;;;;;;17.63;11.95;;;;;;;12.06;72.41;100322.31;5086666;28;20118;-73
2023/05/15 05:12:54;;;;;;;16.35;10.57;;;;;;;12.18;71.90;100318.84;5090470;28;20464;-75
2023/05/15 05:15:21;;;;;;;15.80;10.02;;;;;;;12.29;71.49;100324.22;5088018;28;20148;-74
2023/05/15 05:17:48;;;;;;;20.25;10.77;;;;;;;12.39;71.16;100319.97;5089278;28;20126;-75
2023/05/15 05:20:16;;;;;;;17.42;10.93;;;;;;;12.49;70.50;100320.13;5093175;28;20040;-73
2023/05/15 05:22:43;;;;;;;15.35;10.00;;;;;;;12.60;70.12;100308.78;5085589;28;20053;-74
2023/05/15 05:25:11;;;;;;;14.27;10.38;;;;;;;12.74;69.47;100310.44;5084610;28;20060;-73
2023/05/15 05:27:38;;;;;;;11.30;9.15;;;;;;;12.85;68.92;100305.22;5089587;28;20044;-74
2023/05/15 05:30:06;;;;;;;15.57;10.23;;;;;;;12.98;68.30;100305.16;5086935;28;20052;-72
2023/05/15 05:32:33;;;;;;;17.17;10.27;;;;;;;13.10;67.55;100296.28;5083267;28;20837;-73
2023/05/15 05:35:00;;;;;;;18.55;10.25;;;;;;;13.21;66.96;100298.16;5079767;28;20044;-74
2023/05/15 05:37:28;;;;;;;13.18;9.05;;;;;;;13.33;66.72;100299.91;5074256;28;20085;-74
2023/05/15 05:39:55;;;;;;;17.60;9.98;;;;;;;13.40;66.08;100294.03;5086382;28;20432;-74
2023/05/15 05:42:22;;;;;;;15.20;9.35;;;;;;;13.49;65.61;100289.84;5084457;28;20093;-73
2023/05/15 05:44:50;;;;;;;16.73;10.07;;;;;;;13.60;65.35;100296.97;5085097;28;20070;-73
2023/05/15 05:47:17;;;;;;;12.32;8.27;;;;;;;13.63;64.67;100291.44;5082931;28;20109;-72
2023/05/15 05:49:46;;;;;;;16.35;8.82;;;;;;;13.64;64.99;100290.47;5085016;28;20336;-74
2023/05/15 05:52:15;;;;;;;13.60;9.32;;;;;;;13.64;64.72;100299.28;5075274;28;20060;-75
2023/05/15 05:54:46;;;;;;;11.27;9.48;;;;;;;13.64;64.41;100293.97;5085883;28;20074;-74
2023/05/15 05:57:16;;;;;;;28.33;9.23;;;;;;;13.65;64.38;100292.16;5087235;28;20047;-72
2023/05/15 05:59:44;;;;;;;16.13;9.05;;;;;;;13.66;64.52;100285.91;5089254;28;20136;-73
2023/05/15 06:02:12;;;;;;;15.05;9.40;;;;;;;13.68;64.65;100284.81;5068273;28;20111;-73
2023/05/15 06:04:40;;;;;;;13.07;8.82;;;;;;;13.70;64.93;100281.22;5083398;28;20090;-74
2023/05/15 06:07:07;;;;;;;14.00;9.23;;;;;;;13.72;64.86;100279.31;5083785;28;20060;-75
2023/05/15 06:09:35;;;;;;;18.60;10.20;;;;;;;13.75;64.91;100279.06;5078701;28;20051;-74
2023/05/15 06:12:07;;;;;;;15.82;9.32;;;;;;;13.77;64.96;100277.97;5078742;28;20151;-73
2023/05/15 06:14:34;;;;;;;14.93;9.07;;;;;;;13.81;65.22;100276.78;5084501;28;20048;-73
2023/05/15 06:17:02;;;;;;;11.10;9.25;;;;;;;13.86;65.03;100273.78;5083671;28;20051;-73
2023/05/15 06:19:30;;;;;;;12.80;9.05;;;;;;;13.92;65.26;100276.78;5082917;28;20056;-74
2023/05/15 06:21:57;;;;;;;13.95;9.65;;;;;;;13.97;65.29;100270.31;5084377;28;20098;-73
2023/05/15 06:24:24;;;;;;;13.52;9.00;;;;;;;14.03;65.16;100269.81;5064288;28;20070;-73
2023/05/15 06:26:52;;;;;;;19.70;10.20;;;;;;;14.09;65.41;100264.84;5084851;28;20056;-73
2023/05/15 06:29:20;;;;;;;19.95;9.77;;;;;;;14.18;65.64;100263.28;5083341;28;20467;-73
2023/05/15 06:31:47;;;;;;;26.77;9.85;;;;;;;14.28;65.18;100252.81;5083237;28;20395;-73
2023/05/15 06:34:15;;;;;;;13.32;8.75;;;;;;;14.37;65.23;100255.56;5084942;28;20048;-74
2023/05/15 06:36:42;;;;;;;21.58;8.75;;;;;;;14.50;64.46;100258.09;5087290;28;20052;-72
2023/05/15 06:39:09;;;;;;;12.27;8.52;;;;;;;14.63;64.32;100253.50;5085955;28;20210;-73
2023/05/15 06:41:37;;;;;;;19.98;9.23;;;;;;;14.76;63.93;100260.41;5085359;28;20119;-73
2023/05/15 06:44:04;;;;;;;18.23;9.45;;;;;;;14.89;63.78;100251.31;5084250;28;20051;-73
2023/05/15 06:46:32;;;;;;;17.85;9.75;;;;;;;15.01;63.45;100256.59;5070945;28;20131;-74
2023/05/15 06:49:00;;;;;;;19.23;10.00;;;;;;;15.12;62.96;100246.75;5086655;28;20074;-73
2023/05/15 06:51:27;;;;;;;12.05;8.52;;;;;;;15.28;62.84;100262.22;5089742;28;20093;-73
2023/05/15 06:53:54;;;;;;;22.70;11.15;;;;;;;15.42;62.60;100251.28;5088487;28;20103;-73
2023/05/15 06:56:21;;;;;;;15.88;10.93;;;;;;;15.57;62.05;100245.63;5068179;28;20044;-74
2023/05/15 06:58:49;;;;;;;17.25;11.68;;;;;;;15.69;61.22;100248.13;5086366;28;20058;-74
2023/05/15 07:01:16;;;;;;;20.92;10.70;;;;;;;15.83;60.95;100254.88;5086153;28;20157;-75
2023/05/15 07:03:43;;;;;;;19.98;10.70;;;;;;;15.97;60.80;100253.69;5065648;28;20404;-74
2023/05/15 07:06:10;;;;;;;24.48;11.52;;;;;;;16.09;60.70;100249.13;5092300;28;20052;-78
2023/05/15 07:08:37;;;;;;;12.90;9.70;;;;;;;16.24;59.98;100245.09;5089392;28;20040;-73
2023/05/15 07:11:05;;;;;;;15.20;10.10;;;;;;;16.43;59.58;100242.47;5088698;28;20109;-74
2023/05/15 07:13:32;;;;;;;17.88;11.63;;;;;;;16.66;58.72;100240.44;5083968;28;20048;-73
2023/05/15 07:15:59;;;;;;;17.35;11.77;;;;;;;16.82;57.73;100239.91;5087253;28;20066;-74
2023/05/15 07:18:26;;;;;;;21.35;11.48;;;;;;;17.00;56.96;100240.03;5086920;28;21611;-73
2023/05/15 07:20:54;;;;;;;12.98;10.20;;;;;;;17.19;56.45;100242.66;5083681;28;20051;-74
2023/05/15 07:23:22;;;;;;;14.75;9.05;;;;;;;17.41;55.73;100238.84;5071887;28;20040;-74
2023/05/15 07:25:51;;;;;;;18.75;9.68;;;;;;;17.62;55.37;100236.00;5088219;28;20138;-75
2023/05/15 07:28:18;;;;;;;18.25;9.05;;;;;;;17.78;54.38;100227.41;5072597;28;20436;-73
2023/05/15 07:30:46;;;;;;;12.52;7.38;;;;;;;17.93;53.88;100227.78;5084659;28;20062;-74
2023/05/15 07:33:13;;;;;;;14.30;7.03;;;;;;;18.04;53.45;100227.56;5061225;28;20048;-74
2023/05/15 07:35:40;;;;;;;14.27;7.60;;;;;;;18.13;52.54;100220.50;5090736;28;20056;-74
2023/05/15 07:38:07;;;;;;;16.67;7.00;;;;;;;18.17;52.23;100229.88;5085862;28;20190;-73
2023/05/15 07:40:35;;;;;;;18.20;6.28;;;;;;;18.18;51.85;100227.06;5067227;28;20146;-74
2023/05/15 07:43:02;;;;;;;16.05;7.63;;;;;;;18.21;51.30;100223.28;5085759;28;20059;-74
2023/05/15 07:45:29;;;;;;;14.02;7.50;;;;;;;18.26;50.96;100226.31;5081360;28;20080;-73
2023/05/15 07:47:57;;;;;;;13.70;6.97;;;;;;;18.31;50.58;100223.22;5066173;28;20180;-75
2023/05/15 07:50:25;;;;;;;14.57;7.10;;;;;;;18.30;50.65;100216.22;5068183;28;20135;-74
2023/05/15 07:52:52;;;;;;;12.63;7.03;;;;;;;18.33;50.12;100210.59;5085372;28;20127;-75
2023/05/15 07:55:19;;;;;;;13.25;6.85;;;;;;;18.36;49.66;100218.25;5083479;28;20044;-74
2023/05/15 07:57:47;;;;;;;17.38;7.05;;;;;;;18.33;49.46;100211.44;5084106;28;20040;-74
2023/05/15 08:00:20;;;;;;;10.95;6.13;;;;;;;18.33;49.62;100205.25;5084561;28;20073;-74
2023/05/15 08:02:48;;;;;;;11.35;6.95;;;;;;;18.35;49.44;100205.94;5082350;28;20047;-74
2023/05/15 08:05:16;;;;;;;11.38;5.68;;;;;;;18.41;49.39;100202.66;5067452;28;20051;-74
2023/05/15 08:07:44;;;;;;;13.20;5.95;;;;;;;18.51;49.49;100198.13;5081828;28;20504;-73
2023/05/15 08:10:12;;;;;;;11.70;5.60;;;;;;;18.63;49.27;100199.53;5077490;28;20062;-73
2023/05/15 08:12:44;;;;;;;10.85;5.75;;;;;;;18.75;48.51;100191.34;5079149;28;20055;-74
2023/05/15 08:15:12;;;;;;;11.45;4.53;;;;;;;18.90;48.70;100193.31;5082325;28;20043;-74
2023/05/15 08:17:40;;;;;;;11.45;5.15;;;;;;;19.01;48.23;100188.75;5082776;28;20062;-74
2023/05/15 08:20:08;;;;;;;6.75;4.13;;;;;;;19.08;48.01;100187.94;5085527;28;20079;-74
2023/05/15 08:22:35;;;;;;;11.07;4.13;;;;;;;19.15;47.66;100188.16;5082558;28;20526;-73
2023/05/15 08:25:04;;;;;;;19.25;5.25;;;;;;;19.16;47.16;100187.16;5085933;28;20042;-73
2023/05/15 08:27:31;;;;;;;10.20;4.45;;;;;;;19.13;47.68;100188.31;5069298;28;20187;-74
2023/05/15 08:29:59;;;;;;;13.88;4.60;;;;;;;19.15;47.42;100191.66;5083149;28;20056;-71
2023/05/15 08:32:26;;;;;;;11.15;4.65;;;;;;;19.14;47.46;100183.84;5050737;28;20056;-74
2023/05/15 08:34:54;;;;;;;12.55;4.93;;;;;;;19.15;47.30;100178.34;5079729;28;20145;-72
2023/05/15 08:37:21;;;;;;;15.35;5.20;;;;;;;19.11;47.44;100174.31;5076902;28;20055;-72
2023/05/15 08:39:48;;;;;;;10.25;4.60;;;;;;;19.05;47.16;100174.94;5078059;28;20056;-72
2023/05/15 08:42:34;;;;;;;8.52;3.78;;;;;;;19.00;47.48;100171.03;5083412;28;20044;-73
2023/05/15 08:45:02;;;;;;;8.98;4.68;;;;;;;18.92;47.82;100170.00;5068677;28;20051;-72
2023/05/15 08:47:31;;;;;;;9.30;4.57;;;;;;;18.88;48.20;100167.81;5064146;28;20040;-72
2023/05/15 08:50:06;;;;;;;10.18;5.00;;;;;;;18.73;48.49;100162.16;5084719;28;20135;-72
2023/05/15 08:52:33;;;;;;;12.27;5.00;;;;;;;18.69;48.68;100158.16;5084436;28;20147;-73
2023/05/15 08:55:01;;;;;;;9.02;4.35;;;;;;;18.64;48.81;100153.25;5081508;28;20538;-73
2023/05/15 08:57:29;;;;;;;8.45;5.00;;;;;;;18.64;49.14;100155.91;5071537;28;20040;-73
2023/05/15 08:59:56;;;;;;;11.20;4.40;;;;;;;18.66;49.49;100159.25;5084507;28;20533;-74
2023/05/15 09:02:27;;;;;;;9.85;4.93;;;;;;;18.67;49.29;100149.44;5066509;28;20066;-73
2023/05/15 09:05:11;;;;;;;9.52;4.35;;;;;;;18.67;49.12;100152.09;5078736;28;20523;-72
2023/05/15 09:07:40;;;;;;;11.30;4.78;;;;;;;18.64;49.31;100147.06;5079562;28;20135;-73
2023/05/15 09:10:08;;;;;;;10.75;4.63;;;;;;;18.66;49.05;100151.25;5080722;28;20058;-72
2023/05/15 09:12:41;;;;;;;12.82;4.90;;;;;;;18.67;49.25;100144.94;5081069;28;20234;-71
2023/05/15 09:15:16;;;;;;;11.43;4.57;;;;;;;18.68;49.07;100143.94;5079611;28;20056;-73
2023/05/15 09:17:44;;;;;;;12.15;4.68;;;;;;;18.72;49.66;100144.50;5080153;28;20506;-72
2023/05/15 09:20:33;;;;;;;11.32;4.50;;;;;;;18.74;50.14;100136.38;5085447;28;20109;-77
2023/05/15 09:23:03;;;;;;;11.70;4.50;;;;;;;18.74;49.23;100134.53;5068197;28;20102;-77
2023/05/15 09:25:45;;;;;;;14.48;5.13;;;;;;;18.77;49.11;100134.19;5088509;28;20880;-77
2023/05/15 09:28:30;;;;;;;12.30;4.93;;;;;;;18.69;49.14;100127.00;5075063;28;20115;-76
2023/05/15 09:31:02;;;;;;;19.33;4.90;;;;;;;18.66;49.26;100129.94;5091157;28;20032;-76
2023/05/15 09:33:35;;;;;;;16.88;5.05;;;;;;;18.67;49.30;100123.59;5089820;28;20411;-76
2023/05/15 09:36:03;;;;;;;7.32;4.45;;;;;;;18.84;49.44;100129.09;5076040;28;20140;-75
2023/05/15 09:38:40;;;;;;;23.02;4.78;;;;;;;18.90;49.12;100131.97;5091355;28;20048;-76
2023/05/15 09:41:08;;;;;;;18.13;5.35;;;;;;;19.03;48.79;100133.38;5089642;28;20620;-76
2023/05/15 09:43:37;;;;;;;10.88;4.57;;;;;;;19.14;48.53;100128.63;5076930;28;20105;-76
2023/05/15 09:46:05;;;;;;;11.68;4.57;;;;;;;19.26;48.71;100129.19;5072034;28;20048;-75
2023/05/15 09:48:33;;;;;;;7.38;4.18;;;;;;;19.32;48.55;100133.91;5107669;28;20467;-76
2023/05/15 09:51:01;;;;;;;5.85;4.03;;;;;;;19.43;48.40;100136.28;5088337;28;20036;-76
2023/05/15 09:53:29;;;;;;;8.15;4.47;;;;;;;19.53;47.84;100133.50;5073661;28;20419;-77
2023/05/15 09:55:57;;;;;;;13.88;5.05;;;;;;;19.63;46.98;100136.06;5090754;28;20095;-76
2023/05/15 09:58:28;;;;;;;11.40;4.20;;;;;;;19.71;47.40;100136.94;5092953;28;20044;-77
2023/05/15 10:00:58;;;;;;;7.45;4.07;;;;;;;19.85;47.26;100127.47;5078290;28;20056;-77
2023/05/15 10:03:25;;;;;;;8.60;4.60;;;;;;;19.88;47.30;100129.81;5090371;28;20505;-77
2023/05/15 10:06:00;;;;;;;8.02;4.30;;;;;;;19.94;47.20;100131.00;5108535;28;20058;-77
2023/05/15 10:08:28;;;;;;;11.45;4.65;;;;;;;19.96;46.90;100137.03;5092925;28;20059;-77
2023/05/15 10:10:58;;;;;;;11.02;4.15;;;;;;;19.98;47.00;100127.84;5059219;28;20139;-78
2023/05/15 10:13:26;;;;;;;5.97;3.95;;;;;;;20.03;46.79;100126.50;5069001;28;20143;-78
2023/05/15 10:15:58;;;;;;;5.47;3.90;;;;;;;20.07;46.84;100127.84;5086721;28;20055;-76
2023/05/15 10:18:27;;;;;;;17.17;4.15;;;;;;;20.18;46.77;100122.22;5057645;28;20043;-75
2023/05/15 10:20:56;;;;;;;9.13;4.43;;;;;;;20.27;46.91;100128.41;5082867;28;20055;-76
2023/05/15 10:23:32;;;;;;;8.43;4.30;;;;;;;20.34;47.00;100127.56;5071332;28;20260;-77
2023/05/15 10:26:03;;;;;;;9.27;4.13;;;;;;;20.41;47.34;100125.09;5051594;28;20645;-77
2023/05/15 10:28:32;;;;;;;9.48;4.75;;;;;;;20.35;47.72;100129.22;5102805;27;20048;-75
2023/05/15 10:31:04;;;;;;;5.45;3.78;;;;;;;20.33;48.18;100125.06;5088350;28;20055;-75
2023/05/15 10:33:32;;;;;;;11.35;3.53;;;;;;;20.26;48.54;100121.38;5088826;28;20048;-76
2023/05/15 10:36:05;;;;;;;11.18;3.80;;;;;;;20.19;49.05;100122.03;5086402;28;20078;-76
2023/05/15 10:38:49;;;;;;;4.65;4.07;;;;;;;20.13;48.74;100119.22;5068775;28;20372;-77
2023/05/15 10:41:20;;;;;;;7.95;3.97;;;;;;;20.07;49.84;100114.50;5051755;28;20037;-77
2023/05/15 10:43:52;;;;;;;8.70;3.75;;;;;;;20.01;50.45;100104.47;5085973;28;20052;-76
2023/05/15 10:46:21;;;;;;;11.30;3.85;;;;;;;19.80;50.92;100095.06;5082721;28;20059;-76
2023/05/15 10:48:50;;;;;;;6.25;4.00;;;;;;;19.55;51.65;100099.47;5070875;28;20038;-74
2023/05/15 10:51:30;;;;;;;4.25;3.33;;;;;;;19.22;51.90;100101.13;5066035;28;20044;-75
2023/05/15 10:54:02;;;;;;;6.00;3.65;;;;;;;19.15;52.46;100090.28;5070586;28;20101;-75
2023/05/15 10:56:31;;;;;;;5.47;3.67;;;;;;;19.12;52.89;100087.09;5086567;28;20072;-75
2023/05/15 10:59:09;;;;;;;7.07;3.30;;;;;;;19.20;52.28;100079.13;5071109;28;20148;-76
2023/05/15 11:01:38;;;;;;;7.18;4.03;;;;;;;19.28;52.02;100081.84;5067622;28;20414;-76
2023/05/15 11:04:15;;;;;;;5.80;2.70;;;;;;;19.28;50.99;100081.00;5087452;28;20611;-76
2023/05/15 11:06:48;;;;;;;7.50;2.88;;;;;;;19.38;49.68;100073.72;5086439;28;20059;-76
2023/05/15 11:09:21;;;;;;;3.45;2.53;;;;;;;19.58;50.15;100071.59;5085506;28;20048;-77
2023/05/15 11:11:59;;;;;;;3.58;2.42;;;;;;;19.76;49.73;100074.19;5065819;28;20516;-76
2023/05/15 11:14:28;;;;;;;5.30;2.80;;;;;;;20.01;50.09;100064.41;5083119;28;20127;-77
2023/05/15 11:16:56;;;;;;;4.63;2.63;;;;;;;20.14;48.99;100064.75;5068687;28;20416;-76
2023/05/15 11:19:27;;;;;;;4.18;2.65;;;;;;;20.40;48.99;100067.28;5068723;28;20531;-75
2023/05/15 11:22:05;;;;;;;5.60;2.67;;;;;;;20.68;48.64;100063.25;5067183;28;20105;-76
2023/05/15 11:24:47;;;;;;;4.55;3.42;;;;;;;20.96;48.81;100061.03;5099113;28;20143;-76
2023/05/15 11:27:20;;;;;;;7.65;3.22;;;;;;;21.10;48.23;100066.69;5083683;28;20156;-73